createdAt,value
2023-03-11T00:00:22.693Z,95409.88
2023-03-11T00:02:53.815Z,95418.56
2023-03-11T00:05:25.666Z,95408.94
2023-03-11T00:07:54.574Z,95417.97
2023-03-11T00:10:24.974Z,95423.28
2023-03-11T00:12:53.453Z,95425.84
2023-03-11T00:15:23.120Z,95441.78
2023-03-11T00:17:52.250Z,95426.97
2023-03-11T00:20:23.047Z,95435.84
2023-03-11T00:22:52.327Z,95444.53
2023-03-11T00:25:20.738Z,95450.47
2023-03-11T00:27:48.706Z,95451.13
2023-03-11T00:30:18.192Z,95452.75
2023-03-11T00:32:48.571Z,95445.66
2023-03-11T00:35:18.959Z,95459.19
2023-03-11T00:37:48.561Z,95474.66
2023-03-11T00:40:20.180Z,95461.75
2023-03-11T00:42:48.105Z,95471.44
2023-03-11T00:45:16.761Z,95455.78
2023-03-11T00:47:44.601Z,95450.16
2023-03-11T00:50:18.011Z,95458.53
2023-03-11T00:52:46.859Z,95443.09
2023-03-11T00:55:20.047Z,95447.41
2023-03-11T00:57:48.165Z,95471.59
2023-03-11T01:00:17.935Z,95482.69
2023-03-11T01:02:45.862Z,95481.75
2023-03-11T01:05:15.813Z,95497.84
2023-03-11T01:07:43.820Z,95492.19
2023-03-11T01:10:13.096Z,95497.34
2023-03-11T01:12:41.190Z,95486.22
2023-03-11T01:15:10.286Z,95503.00
2023-03-11T01:17:38.553Z,95500.88
2023-03-11T01:20:09.101Z,95490.59
2023-03-11T01:22:38.169Z,95502.84
2023-03-11T01:25:06.525Z,95492.06
2023-03-11T01:27:34.499Z,95491.41
2023-03-11T01:30:02.534Z,95484.16
2023-03-11T01:32:30.933Z,95482.25
2023-03-11T01:34:58.832Z,95500.44
2023-03-11T01:37:26.752Z,95484.31
2023-03-11T01:39:56.665Z,95498.81
2023-03-11T01:42:24.757Z,95497.53
2023-03-11T01:44:52.452Z,95509.28
2023-03-11T01:47:40.964Z,95526.19
2023-03-11T01:50:13.828Z,95497.56
2023-03-11T01:52:43.415Z,95514.44
2023-03-11T01:55:13.813Z,95523.63
2023-03-11T01:57:44.219Z,95526.69
2023-03-11T02:00:15.723Z,95522.50
2023-03-11T02:02:46.631Z,95526.50
2023-03-11T02:05:14.736Z,95529.88
2023-03-11T02:07:42.739Z,95526.81
2023-03-11T02:10:15.424Z,95521.03
2023-03-11T02:12:44.689Z,95512.66
2023-03-11T02:15:13.983Z,95517.97
2023-03-11T02:17:44.430Z,95517.81
2023-03-11T02:20:29.462Z,95521.81
2023-03-11T02:23:00.442Z,95513.31
2023-03-11T02:25:36.753Z,95528.91
2023-03-11T02:28:11.504Z,95531.97
2023-03-11T02:30:43.872Z,95536.13
2023-03-11T02:33:13.172Z,95538.56
2023-03-11T02:35:42.268Z,95549.66
2023-03-11T02:38:10.792Z,95560.41
2023-03-11T02:40:50.698Z,95556.38
2023-03-11T02:43:24.512Z,95571.47
2023-03-11T02:45:55.092Z,95572.47
2023-03-11T02:48:24.287Z,95574.53
2023-03-11T02:50:54.451Z,95584.50
2023-03-11T02:53:27.098Z,95577.88
2023-03-11T02:55:58.696Z,95574.97
2023-03-11T02:58:32.587Z,95562.25
2023-03-11T03:01:01.262Z,95548.91
2023-03-11T03:03:35.006Z,95556.75
2023-03-11T03:06:05.153Z,95561.44
2023-03-11T03:08:34.459Z,95564.84
2023-03-11T03:11:05.093Z,95566.94
2023-03-11T03:13:37.608Z,95573.72
2023-03-11T03:16:12.705Z,95587.88
2023-03-11T03:18:40.802Z,95590.91
2023-03-11T03:21:08.842Z,95595.53
2023-03-11T03:23:38.178Z,95591.00
2023-03-11T03:26:09.440Z,95588.09
2023-03-11T03:28:38.701Z,95590.97
2023-03-11T03:31:12.267Z,95592.91
2023-03-11T03:33:40.452Z,95607.97
2023-03-11T03:36:09.459Z,95615.34
2023-03-11T03:38:39.566Z,95615.63
2023-03-11T03:41:09.565Z,95629.78
2023-03-11T03:43:39.247Z,95628.16
2023-03-11T03:46:09.431Z,95632.34
2023-03-11T03:48:38.775Z,95623.81
2023-03-11T03:51:10.308Z,95625.59
2023-03-11T03:53:44.922Z,95620.44
2023-03-11T03:56:15.113Z,95616.25
2023-03-11T03:58:48.175Z,95609.50
2023-03-11T04:01:18.695Z,95615.44
2023-03-11T04:03:46.622Z,95619.78
2023-03-11T04:06:21.407Z,95632.63
2023-03-11T04:09:03.495Z,95631.69
2023-03-11T04:11:35.731Z,95646.94
2023-03-11T04:14:05.773Z,95647.13
2023-03-11T04:16:41.541Z,95655.91
2023-03-11T04:19:09.939Z,95657.03
2023-03-11T04:21:39.857Z,95657.03
2023-03-11T04:24:10.376Z,95661.69
2023-03-11T04:26:39.466Z,95657.63
2023-03-11T04:29:18.492Z,95655.06
2023-03-11T04:31:52.309Z,95667.78
2023-03-11T04:34:20.292Z,95674.22
2023-03-11T04:36:53.089Z,95671.53
2023-03-11T04:39:20.769Z,95676.06
2023-03-11T04:41:49.052Z,95674.16
2023-03-11T04:44:19.912Z,95676.28
2023-03-11T04:46:49.207Z,95678.38
2023-03-11T04:49:17.612Z,95674.25
2023-03-11T04:51:45.724Z,95671.22
2023-03-11T04:54:13.519Z,95666.72
2023-03-11T04:56:41.371Z,95664.97
2023-03-11T04:59:10.235Z,95677.69
2023-03-11T05:01:41.425Z,95671.41
2023-03-11T05:04:09.587Z,95672.06
2023-03-11T05:06:37.731Z,95674.66
2023-03-11T05:09:10.956Z,95678.34
2023-03-11T05:11:42.130Z,95680.25
2023-03-11T05:14:10.668Z,95677.69
2023-03-11T05:16:40.269Z,95681.84
2023-03-11T05:19:27.913Z,95686.72
2023-03-11T05:21:56.135Z,95694.94
2023-03-11T05:24:26.760Z,95696.53
2023-03-11T05:26:59.506Z,95702.03
2023-03-11T05:29:31.173Z,95700.47
2023-03-11T05:32:02.419Z,95704.81
2023-03-11T05:34:31.494Z,95708.34
2023-03-11T05:37:01.483Z,95709.16
2023-03-11T05:39:40.492Z,95711.88
2023-03-11T05:42:09.067Z,95717.00
2023-03-11T05:44:37.364Z,95713.81
2023-03-11T05:47:07.066Z,95726.50
2023-03-11T05:49:36.360Z,95715.28
2023-03-11T05:52:08.162Z,95716.22
2023-03-11T05:54:36.407Z,95717.97
2023-03-11T05:57:05.102Z,95719.75
2023-03-11T05:59:35.719Z,95722.47
2023-03-11T06:02:03.760Z,95717.78
2023-03-11T06:04:33.251Z,95717.94
2023-03-11T06:07:04.014Z,95712.94
2023-03-11T06:09:32.121Z,95713.75
2023-03-11T06:11:59.976Z,95721.47
2023-03-11T06:14:34.674Z,95729.34
2023-03-11T06:17:07.528Z,95724.50
2023-03-11T06:19:39.903Z,95732.56
2023-03-11T06:22:11.731Z,95740.16
2023-03-11T06:24:39.957Z,95742.06
2023-03-11T06:27:09.785Z,95739.63
2023-03-11T06:29:40.301Z,95742.19
2023-03-11T06:32:13.993Z,95748.31
2023-03-11T06:34:43.419Z,95751.56
2023-03-11T06:37:14.662Z,95757.97
2023-03-11T06:39:42.661Z,95760.72
2023-03-11T06:42:15.359Z,95766.53
2023-03-11T06:44:46.019Z,95761.06
2023-03-11T06:47:14.305Z,95766.75
2023-03-11T06:49:45.115Z,95767.09
2023-03-11T06:52:16.653Z,95767.59
2023-03-11T06:54:45.862Z,95767.94
2023-03-11T06:57:17.420Z,95771.97
2023-03-11T06:59:45.391Z,95783.28
2023-03-11T07:02:17.752Z,95788.47
2023-03-11T07:04:53.461Z,95795.75
2023-03-11T07:07:26.341Z,95799.50
2023-03-11T07:09:56.965Z,95804.97
2023-03-11T07:12:32.042Z,95809.47
2023-03-11T07:15:00.761Z,95804.03
2023-03-11T07:17:29.828Z,95811.75
2023-03-11T07:19:59.786Z,95810.50
2023-03-11T07:22:27.715Z,95810.50
2023-03-11T07:24:55.742Z,95818.50
2023-03-11T07:27:25.752Z,95825.44
2023-03-11T07:29:55.694Z,95832.72
2023-03-11T07:32:23.529Z,95828.88
2023-03-11T07:34:52.284Z,95824.72
2023-03-11T07:37:27.871Z,95836.66
2023-03-11T07:39:55.728Z,95828.03
2023-03-11T07:42:28.435Z,95829.03
2023-03-11T07:45:00.590Z,95845.81
2023-03-11T07:47:30.461Z,95846.47
2023-03-11T07:49:58.387Z,95848.72
2023-03-11T07:52:31.238Z,95852.59
2023-03-11T07:54:59.570Z,95851.63
2023-03-11T07:57:28.429Z,95847.59
2023-03-11T08:00:00.984Z,95857.09
2023-03-11T08:02:28.978Z,95854.84
2023-03-11T08:04:58.669Z,95862.63
2023-03-11T08:07:27.896Z,95867.16
2023-03-11T08:09:57.982Z,95865.56
2023-03-11T08:12:25.553Z,95862.34
2023-03-11T08:14:53.072Z,95867.50
2023-03-11T08:17:20.586Z,95872.31
2023-03-11T08:19:50.202Z,95869.59
2023-03-11T08:22:17.692Z,95867.69
2023-03-11T08:24:46.512Z,95877.47
2023-03-11T08:27:14.023Z,95882.50
2023-03-11T08:29:41.848Z,95885.38
2023-03-11T08:32:09.623Z,95887.28
2023-03-11T08:34:39.375Z,95891.50
2023-03-11T08:37:07.073Z,95901.81
2023-03-11T08:39:34.567Z,95899.06
2023-03-11T08:42:03.981Z,95903.84
2023-03-11T08:44:31.474Z,95898.34
2023-03-11T08:46:59.209Z,95903.31
2023-03-11T08:49:26.765Z,95904.94
2023-03-11T08:51:54.271Z,95908.47
2023-03-11T08:54:21.797Z,95908.94
2023-03-11T08:56:49.293Z,95912.16
2023-03-11T08:59:18.157Z,95908.31
2023-03-11T09:01:46.802Z,95913.16
2023-03-11T09:04:14.697Z,95916.72
2023-03-11T09:06:43.280Z,95922.00
2023-03-11T09:09:11.628Z,95921.69
2023-03-11T09:11:39.624Z,95921.88
2023-03-11T09:14:07.122Z,95919.28
2023-03-11T09:16:36.030Z,95915.63
2023-03-11T09:19:07.179Z,95917.47
2023-03-11T09:21:35.217Z,95914.47
2023-03-11T09:24:04.246Z,95922.78
2023-03-11T09:26:31.877Z,95924.44
2023-03-11T09:28:59.448Z,95917.03
2023-03-11T09:31:27.045Z,95924.50
2023-03-11T09:33:56.445Z,95918.03
2023-03-11T09:36:24.449Z,95920.78
2023-03-11T09:38:52.043Z,95929.50
2023-03-11T09:41:30.447Z,95922.38
2023-03-11T09:44:13.220Z,95929.97
2023-03-11T09:47:25.191Z,95926.25
2023-03-11T09:50:16.669Z,95933.22
2023-03-11T09:52:48.414Z,95942.41
2023-03-11T09:55:37.274Z,95936.75
2023-03-11T09:58:11.705Z,95940.47
2023-03-11T10:00:40.361Z,95932.56
2023-03-11T10:03:18.786Z,95945.97
2023-03-11T10:05:47.973Z,95948.06
2023-03-11T10:08:24.088Z,95952.25
2023-03-11T10:11:00.130Z,95948.69
2023-03-11T10:13:36.421Z,95950.16
2023-03-11T10:16:12.851Z,95955.13
2023-03-11T10:18:48.625Z,95951.72
2023-03-11T10:21:28.514Z,95952.97
2023-03-11T10:24:06.209Z,95954.41
2023-03-11T10:26:37.299Z,95960.56
2023-03-11T10:29:13.929Z,95949.31
2023-03-11T10:31:48.325Z,95952.72
2023-03-11T10:34:22.271Z,95948.88
2023-03-11T10:36:58.030Z,95951.50
2023-03-11T10:39:26.729Z,95949.53
2023-03-11T10:41:56.409Z,95942.41
2023-03-11T10:44:29.267Z,95944.94
2023-03-11T10:46:56.755Z,95942.84
2023-03-11T10:49:24.375Z,95937.53
2023-03-11T10:51:55.370Z,95947.41
2023-03-11T10:54:27.223Z,95954.47
2023-03-11T10:56:59.844Z,95960.91
2023-03-11T10:59:31.910Z,95953.84
2023-03-11T11:02:01.229Z,95954.59
2023-03-11T11:04:34.158Z,95955.69
2023-03-11T11:07:22.751Z,95959.97
2023-03-11T11:10:14.718Z,95959.56
2023-03-11T11:12:54.083Z,95957.00
2023-03-11T11:15:22.988Z,95954.16
2023-03-11T11:17:52.408Z,95958.38
2023-03-11T11:20:21.124Z,95953.31
2023-03-11T11:22:53.303Z,95953.66
2023-03-11T11:25:33.606Z,95962.09
2023-03-11T11:28:03.517Z,95962.56
2023-03-11T11:30:31.271Z,95958.38
2023-03-11T11:33:24.617Z,95964.41
2023-03-11T11:35:54.995Z,95967.72
2023-03-11T11:38:25.419Z,95961.22
2023-03-11T11:40:55.796Z,95961.75
2023-03-11T11:43:29.092Z,95965.59
2023-03-11T11:46:00.371Z,95952.41
2023-03-11T11:48:33.980Z,95952.19
2023-03-11T11:51:03.919Z,95954.19
2023-03-11T11:53:41.988Z,95942.44
2023-03-11T11:56:09.596Z,95949.56
2023-03-11T11:58:37.323Z,95938.75
2023-03-11T12:01:15.241Z,95943.50
2023-03-11T12:04:26.450Z,95940.47
2023-03-11T12:07:05.252Z,95940.28
2023-03-11T12:09:47.685Z,95931.22
2023-03-11T12:12:25.147Z,95939.91
2023-03-11T12:15:09.232Z,95939.88
2023-03-11T12:17:40.409Z,95931.94
2023-03-11T12:20:13.240Z,95932.00
2023-03-11T12:23:03.110Z,95928.09
2023-03-11T12:25:40.380Z,95924.84
2023-03-11T12:28:20.143Z,95923.94
2023-03-11T12:30:52.527Z,95918.88
2023-03-11T12:33:28.988Z,95921.50
2023-03-11T12:35:58.842Z,95921.56
2023-03-11T12:38:33.402Z,95913.63
2023-03-11T12:41:07.314Z,95915.84
2023-03-11T12:44:00.957Z,95911.97
2023-03-11T12:47:11.322Z,95916.28
2023-03-11T12:49:40.912Z,95922.59
2023-03-11T12:52:21.804Z,95924.16
2023-03-11T12:54:50.518Z,95915.28
2023-03-11T12:57:33.278Z,95917.56
2023-03-11T13:00:23.801Z,95915.91
2023-03-11T13:03:12.189Z,95915.75
2023-03-11T13:05:53.552Z,95916.91
2023-03-11T13:08:22.823Z,95912.34
2023-03-11T13:10:51.793Z,95915.28
2023-03-11T13:13:39.035Z,95920.50
2023-03-11T13:16:38.703Z,95928.56
2023-03-11T13:19:38.572Z,95918.88
2023-03-11T13:22:30.067Z,95933.28
2023-03-11T13:24:57.723Z,95934.59
2023-03-11T13:27:41.883Z,95937.53
2023-03-11T13:30:19.921Z,95932.44
2023-03-11T13:33:13.789Z,95928.31
2023-03-11T13:36:01.067Z,95938.75
2023-03-11T13:38:46.365Z,95942.00
2023-03-11T13:41:17.800Z,95938.00
2023-03-11T13:43:48.589Z,95937.81
2023-03-11T13:46:29.590Z,95941.72
2023-03-11T13:49:04.149Z,95937.28
2023-03-11T13:51:39.041Z,95947.38
2023-03-11T13:54:22.871Z,95945.78
2023-03-11T13:56:56.192Z,95950.34
2023-03-11T13:59:25.954Z,95950.34
2023-03-11T14:01:57.626Z,95949.34
2023-03-11T14:04:29.756Z,95952.41
2023-03-11T14:06:57.362Z,95950.28
2023-03-11T14:09:27.639Z,95949.66
2023-03-11T14:11:57.392Z,95943.50
2023-03-11T14:14:45.330Z,95941.53
2023-03-11T14:17:16.874Z,95937.88
2023-03-11T14:19:44.643Z,95937.94
2023-03-11T14:22:12.175Z,95931.88
2023-03-11T14:24:40.298Z,95933.97
2023-03-11T14:27:10.562Z,95936.25
2023-03-11T14:32:40.833Z,95936.50
2023-03-11T14:35:21.125Z,95951.41
2023-03-11T14:37:48.866Z,95958.19
2023-03-11T14:40:25.369Z,95961.66
2023-03-11T14:42:55.380Z,95965.41
2023-03-11T15:09:43.883Z,95948.78
2023-03-11T15:12:33.201Z,95947.78
2023-03-11T15:15:00.931Z,95956.47
2023-03-11T15:17:42.580Z,95957.13
2023-03-11T15:20:25.516Z,95950.50
2023-03-11T15:52:37.748Z,95975.69
2023-03-11T15:55:15.194Z,95985.69
2023-03-11T16:13:47.229Z,95994.63
2023-03-11T16:16:17.814Z,95985.91
2023-03-11T16:18:45.413Z,95980.88
2023-03-11T16:21:18.174Z,95991.88
2023-03-11T16:23:52.029Z,95991.56
2023-03-11T16:26:20.646Z,96003.22
2023-03-11T16:28:49.609Z,95997.72
2023-03-11T16:31:17.202Z,95995.63
2023-03-11T16:33:44.735Z,95997.44
2023-03-11T16:36:12.428Z,95999.72
2023-03-11T16:38:45.317Z,96004.72
2023-03-11T16:41:12.819Z,95999.72
2023-03-11T16:43:40.383Z,96000.66
2023-03-11T16:46:09.592Z,95998.09
2023-03-11T16:48:37.137Z,96004.09
2023-03-11T16:51:05.524Z,96005.22
2023-03-11T16:53:33.123Z,96004.59
2023-03-11T16:56:00.766Z,96008.47
2023-03-11T16:58:28.612Z,96018.47
2023-03-11T17:00:56.222Z,96025.59
2023-03-11T17:03:27.545Z,96015.59
2023-03-11T17:06:02.844Z,96018.66
2023-03-11T17:08:30.702Z,96018.50
2023-03-11T17:10:58.372Z,96022.38
2023-03-11T17:13:25.974Z,96023.81
2023-03-11T17:16:00.685Z,96031.28
2023-03-11T17:18:30.405Z,96030.44
2023-03-11T17:20:57.917Z,96035.81
2023-03-11T17:23:25.425Z,96034.31
2023-03-11T17:25:52.928Z,96042.41
2023-03-11T17:28:20.484Z,96050.50
2023-03-11T17:30:48.077Z,96050.16
2023-03-11T17:33:15.614Z,96055.66
2023-03-11T17:35:44.638Z,96061.13
2023-03-11T17:38:12.147Z,96066.78
2023-03-11T17:40:39.712Z,96060.50
2023-03-11T17:43:07.592Z,96069.38
2023-03-11T17:45:35.228Z,96072.13
2023-03-11T17:48:02.813Z,96084.88
2023-03-11T17:50:30.358Z,96086.47
2023-03-11T17:52:59.342Z,96091.81
2023-03-11T17:55:27.315Z,96094.38
2023-03-11T17:57:54.987Z,96100.38
2023-03-11T18:00:23.321Z,96099.75
2023-03-11T18:02:51.352Z,96105.38
2023-03-11T18:05:19.213Z,96106.84
2023-03-11T18:07:46.804Z,96116.00
2023-03-11T18:10:16.269Z,96120.19
2023-03-11T18:12:45.415Z,96118.09
2023-03-11T18:15:18.755Z,96119.03
2023-03-11T18:17:46.514Z,96120.44
2023-03-11T18:20:14.589Z,96118.34
2023-03-11T18:22:46.222Z,96127.34
2023-03-11T18:25:15.715Z,96114.59
2023-03-11T18:27:43.516Z,96115.84
2023-03-11T18:30:12.471Z,96122.47
2023-03-11T18:32:40.355Z,96115.47
2023-03-11T18:35:08.830Z,96121.91
2023-03-11T18:37:36.410Z,96131.75
2023-03-11T18:40:05.831Z,96136.41
2023-03-11T18:42:35.213Z,96141.88
2023-03-11T18:45:02.890Z,96141.50
2023-03-11T18:47:30.542Z,96147.97
2023-03-11T18:49:58.110Z,96156.13
2023-03-11T18:52:25.659Z,96153.88
2023-03-11T18:54:53.164Z,96152.09
2023-03-11T18:57:20.670Z,96159.81
2023-03-11T18:59:51.850Z,96163.66
2023-03-11T19:02:19.549Z,96164.78
2023-03-11T19:04:47.122Z,96157.22
2023-03-11T19:07:14.749Z,96163.31
2023-03-11T19:09:42.574Z,96160.38
2023-03-11T19:12:10.226Z,96163.56
2023-03-11T19:14:37.875Z,96169.84
2023-03-11T19:17:07.012Z,96173.00
2023-03-11T19:19:35.752Z,96174.41
2023-03-11T19:22:03.218Z,96169.84
2023-03-11T19:24:31.927Z,96166.41
2023-03-11T19:26:59.438Z,96174.72
2023-03-11T19:29:26.929Z,96171.75
2023-03-11T19:31:54.427Z,96179.13
2023-03-11T19:34:24.439Z,96172.28
2023-03-11T19:36:51.983Z,96177.19
2023-03-11T19:39:19.479Z,96181.69
2023-03-11T19:41:46.991Z,96182.78
2023-03-11T19:44:14.595Z,96180.66
2023-03-11T19:46:42.691Z,96186.06
2023-03-11T19:49:10.595Z,96180.69
2023-03-11T19:51:49.763Z,96189.66
2023-03-11T19:54:18.237Z,96189.97
2023-03-11T19:56:46.280Z,96197.94
2023-03-11T19:59:14.060Z,96195.53
2023-03-11T20:01:42.298Z,96194.06
2023-03-11T20:04:10.709Z,96197.72
2023-03-11T20:06:39.708Z,96200.44
2023-03-11T20:09:07.717Z,96200.88
2023-03-11T20:11:38.778Z,96202.25
2023-03-11T20:14:06.671Z,96205.25
2023-03-11T20:16:34.516Z,96209.34
2023-03-11T20:19:02.212Z,96205.03
2023-03-11T20:21:29.900Z,96199.78
2023-03-11T20:24:00.792Z,96207.78
2023-03-11T20:26:28.362Z,96201.94
2023-03-11T20:28:57.033Z,96206.97
2023-03-11T20:31:26.701Z,96213.16
2023-03-11T20:33:54.968Z,96215.72
2023-03-11T20:36:24.734Z,96212.72
2023-03-11T20:38:53.686Z,96212.59
2023-03-11T20:41:24.138Z,96204.22
2023-03-11T20:43:52.677Z,96214.78
2023-03-11T20:46:20.503Z,96210.84
2023-03-11T20:48:48.359Z,96209.78
2023-03-11T20:51:21.343Z,96219.03
2023-03-11T20:53:49.486Z,96222.84
2023-03-11T20:56:19.423Z,96223.94
2023-03-11T20:58:50.905Z,96219.88
2023-03-11T21:01:20.961Z,96230.81
2023-03-11T21:03:49.201Z,96226.47
2023-03-11T21:06:18.480Z,96230.09
2023-03-11T21:08:47.009Z,96240.66
2023-03-11T21:11:14.832Z,96234.13
2023-03-11T21:13:43.044Z,96240.94
2023-03-11T21:16:12.432Z,96234.19
2023-03-11T21:18:40.329Z,96243.69
2023-03-11T21:21:11.656Z,96237.59
2023-03-11T21:23:39.867Z,96234.63
2023-03-11T21:26:08.306Z,96227.88
2023-03-11T21:28:36.258Z,96233.03
2023-03-11T21:31:06.313Z,96236.28
2023-03-11T21:33:35.492Z,96238.56
2023-03-11T21:36:03.243Z,96242.63
2023-03-11T21:38:31.887Z,96248.56
2023-03-11T21:41:07.135Z,96250.22
2023-03-11T21:43:35.472Z,96251.81
2023-03-11T21:46:03.265Z,96249.13
2023-03-11T21:48:31.368Z,96251.31
2023-03-11T21:51:00.715Z,96250.06
2023-03-11T21:53:28.521Z,96250.38
2023-03-11T21:55:56.449Z,96257.66
2023-03-11T21:58:24.438Z,96258.91
2023-03-11T22:00:52.159Z,96262.13
2023-03-11T22:03:20.530Z,96262.41
2023-03-11T22:05:48.203Z,96263.50
2023-03-11T22:08:17.063Z,96256.72
2023-03-11T22:10:44.758Z,96254.09
2023-03-11T22:13:12.311Z,96251.78
2023-03-11T22:15:40.070Z,96247.59
2023-03-11T22:18:07.637Z,96234.31
2023-03-11T22:20:35.308Z,96245.03
2023-03-11T22:23:03.078Z,96249.06
2023-03-11T22:25:31.985Z,96248.41
2023-03-11T22:27:59.557Z,96250.19
2023-03-11T22:30:27.525Z,96254.53
2023-03-11T22:32:55.114Z,96249.25
2023-03-11T22:35:22.796Z,96252.66
2023-03-11T22:37:50.408Z,96249.41
2023-03-11T22:40:17.961Z,96261.19
2023-03-11T22:42:46.799Z,96255.50
2023-03-11T22:45:14.443Z,96264.31
2023-03-11T22:47:41.984Z,96259.69
2023-03-11T22:50:10.527Z,96261.88
2023-03-11T22:52:38.086Z,96262.53
2023-03-11T22:55:06.189Z,96269.06
2023-03-11T22:57:38.544Z,96277.44
2023-03-11T23:00:17.006Z,96263.50
2023-03-11T23:02:45.614Z,96271.22
2023-03-11T23:05:13.983Z,96260.25
2023-03-11T23:07:41.811Z,96264.06
2023-03-11T23:10:11.476Z,96270.94
2023-03-11T23:12:39.754Z,96269.47
2023-03-11T23:15:12.210Z,96270.53
2023-03-11T23:17:40.136Z,96267.00
2023-03-11T23:20:13.873Z,96264.59
2023-03-11T23:22:43.319Z,96268.66
2023-03-11T23:25:13.057Z,96262.94
2023-03-11T23:27:41.841Z,96267.84
2023-03-11T23:30:12.849Z,96272.84
2023-03-11T23:32:40.627Z,96266.75
2023-03-11T23:35:08.931Z,96270.94
2023-03-11T23:37:36.527Z,96262.41
2023-03-11T23:40:05.326Z,96271.78
2023-03-11T23:42:33.894Z,96270.53
2023-03-11T23:45:01.708Z,96273.50
2023-03-11T23:47:30.651Z,96281.38
2023-03-11T23:49:58.286Z,96281.13
2023-03-11T23:52:26.165Z,96268.09
2023-03-11T23:54:53.772Z,96267.56
2023-03-11T23:57:21.318Z,96271.38
2023-03-11T23:59:48.855Z,96266.63
